Time;durP1;ratioP1;P1;durP2;ratioP2;P2;SDS_P1;SDS_P2;PMS_P1;PMS_P2;Temp;Humidity;BMP_temperature;BMP_pressure;BME280_temperature;BME280_humidity;BME280_pressure;Samples;Min_cycle;Max_cycle;Signal;HPM_P1;HPM_P2
2022/09/07 00:53:28;;;;;;;2.83;2.50;;;19.90;99.90;;;;;;4738552;30;20491;-83
2022/09/07 04:20:41;;;;;;;4.27;3.87;;;19.80;99.90;;;;;;4798300;29;20916;-82
2022/09/07 05:15:29;;;;;;;4.63;4.13;;;19.20;99.90;;;;;;4822443;29;20506;-81
2022/09/07 05:28:20;;;;;;;5.00;4.60;;;19.20;99.90;;;;;;4936982;29;20527;-81
2022/09/07 06:09:12;;;;;;;7.27;3.80;;;19.90;99.90;;;;;;4788692;30;20503;-81
2022/09/07 06:11:39;;;;;;;4.70;2.93;;;20.00;99.90;;;;;;4799433;29;20470;-83
2022/09/07 06:14:05;;;;;;;5.87;4.17;;;20.00;99.90;;;;;;4881377;29;20499;-83
2022/09/07 06:16:33;;;;;;;3.40;3.10;;;20.10;99.90;;;;;;4938585;29;20971;-83
2022/09/07 06:19:05;;;;;;;4.20;3.80;;;20.20;99.90;;;;;;5010942;28;20453;-83
2022/09/07 06:21:35;;;;;;;3.43;3.23;;;20.30;99.90;;;;;;5021904;28;20517;-83
2022/09/07 06:24:03;;;;;;;4.47;3.50;;;20.30;99.90;;;;;;5036603;28;20804;-83
2022/09/07 06:26:31;;;;;;;3.63;2.90;;;20.30;99.90;;;;;;5030876;28;20473;-83
2022/09/07 06:28:58;;;;;;;4.77;3.57;;;20.30;99.90;;;;;;5026272;28;20454;-83
2022/09/07 06:31:25;;;;;;;5.93;5.07;;;20.50;99.90;;;;;;5031386;28;20449;-83
2022/09/07 06:33:54;;;;;;;3.80;3.40;;;20.60;99.90;;;;;;5039148;28;20480;-83
2022/09/07 06:36:22;;;;;;;4.97;3.40;;;20.70;99.90;;;;;;5031778;28;20478;-83
2022/09/07 06:38:50;;;;;;;3.93;3.60;;;20.80;99.90;;;;;;5019419;28;20451;-83
2022/09/07 06:41:18;;;;;;;3.47;3.27;;;20.90;99.90;;;;;;5029013;28;20466;-83
2022/09/07 06:43:46;;;;;;;3.20;2.90;;;21.00;99.90;;;;;;5038594;28;20457;-83
2022/09/07 06:46:14;;;;;;;3.13;2.93;;;21.20;99.90;;;;;;5038444;28;20980;-83
2022/09/07 06:48:41;;;;;;;6.50;3.47;;;21.30;99.90;;;;;;5039156;28;20457;-83
2022/09/07 06:51:11;;;;;;;3.63;2.70;;;21.40;99.90;;;;;;5031934;28;20460;-83
2022/09/07 06:53:38;;;;;;;4.40;2.97;;;21.50;99.90;;;;;;5018908;28;20516;-83
2022/09/07 06:56:07;;;;;;;3.73;3.30;;;21.60;99.90;;;;;;5018290;28;20470;-83
2022/09/07 06:58:35;;;;;;;5.07;4.60;;;21.80;99.90;;;;;;5015014;28;20849;-83
2022/09/07 07:01:07;;;;;;;6.83;3.20;;;21.80;99.90;;;;;;5016918;28;20460;-83
2022/09/07 07:03:33;;;;;;;4.30;3.07;;;21.80;99.90;;;;;;5014544;28;20456;-83
2022/09/07 07:06:00;;;;;;;3.97;2.83;;;21.80;99.90;;;;;;5018618;28;20484;-83
2022/09/07 07:08:27;;;;;;;3.77;3.40;;;21.90;99.90;;;;;;5019675;28;20441;-83
2022/09/07 07:10:56;;;;;;;3.90;3.60;;;22.10;99.90;;;;;;5023497;28;20460;-84
2022/09/07 07:13:26;;;;;;;5.10;3.97;;;22.10;99.90;;;;;;5035678;28;20539;-82
2022/09/07 07:21:07;;;;;;;2.80;2.60;;;22.30;99.90;;;;;;5036178;28;20480;-80
2022/09/07 07:23:34;;;;;;;3.20;2.90;;;22.40;99.90;;;;;;5038266;28;20451;-81
2022/09/07 07:26:02;;;;;;;5.87;3.27;;;22.40;99.90;;;;;;5038673;28;20825;-81
2022/09/07 07:28:29;;;;;;;5.33;3.60;;;22.50;99.90;;;;;;5037884;28;20499;-82
2022/09/07 07:30:57;;;;;;;3.37;3.07;;;22.50;99.90;;;;;;5036508;28;20954;-81
2022/09/07 07:33:25;;;;;;;5.33;3.93;;;22.60;99.90;;;;;;5036267;28;20488;-81
2022/09/07 07:35:52;;;;;;;4.37;3.63;;;22.60;99.90;;;;;;5036859;28;20461;-81
2022/09/07 07:38:20;;;;;;;5.83;3.40;;;22.60;99.90;;;;;;5035838;28;20536;-81
2022/09/07 07:40:53;;;;;;;3.10;2.80;;;22.70;99.90;;;;;;5036825;28;20969;-81
2022/09/07 07:43:20;;;;;;;4.53;2.87;;;22.70;99.90;;;;;;5036730;28;20449;-81
2022/09/07 07:45:48;;;;;;;5.63;4.07;;;22.70;99.90;;;;;;5037154;28;20485;-81
2022/09/07 07:48:16;;;;;;;4.87;3.30;;;22.70;99.90;;;;;;5036303;28;20842;-81
2022/09/07 07:50:43;;;;;;;3.83;3.23;;;22.80;99.90;;;;;;5036203;28;20492;-82
2022/09/07 07:53:09;;;;;;;4.20;3.80;;;22.80;99.90;;;;;;5036159;28;20572;-81
2022/09/07 07:55:38;;;;;;;3.20;2.80;;;22.80;99.90;;;;;;5036472;28;20995;-81
2022/09/07 07:58:05;;;;;;;3.10;2.80;;;22.90;99.90;;;;;;5036498;28;20457;-81
2022/09/07 08:00:33;;;;;;;5.57;3.80;;;22.90;99.90;;;;;;5036656;28;20456;-81
2022/09/07 08:03:01;;;;;;;3.60;3.30;;;23.00;99.90;;;;;;5036286;28;20457;-81
2022/09/07 08:05:28;;;;;;;3.50;3.20;;;23.10;99.90;;;;;;5035742;28;20480;-81
2022/09/07 08:07:55;;;;;;;8.33;3.87;;;23.10;99.90;;;;;;5036045;28;20545;-81
2022/09/07 08:10:28;;;;;;;4.80;3.50;;;23.20;99.90;;;;;;5036172;28;20881;-81
2022/09/07 08:12:57;;;;;;;7.90;3.93;;;23.30;99.90;;;;;;5035504;28;20587;-81
2022/09/07 08:15:24;;;;;;;6.63;3.67;;;23.40;99.90;;;;;;5035763;28;20473;-81
2022/09/07 08:17:52;;;;;;;4.00;3.50;;;23.50;99.90;;;;;;5036383;28;20541;-81
2022/09/07 08:20:19;;;;;;;3.90;3.20;;;23.50;99.90;;;;;;5035883;28;20492;-81
2022/09/07 08:22:49;;;;;;;3.83;3.20;;;23.50;99.90;;;;;;5036595;28;20488;-81
2022/09/07 08:25:18;;;;;;;3.50;3.20;;;23.60;99.90;;;;;;5035636;28;20458;-82
2022/09/07 08:27:44;;;;;;;6.07;3.60;;;23.60;99.90;;;;;;5035700;28;20467;-81
2022/09/07 08:30:13;;;;;;;3.90;3.27;;;23.60;99.90;;;;;;5039449;28;20551;-82
2022/09/07 08:32:40;;;;;;;5.40;3.50;;;23.60;99.90;;;;;;5039724;28;20445;-82
2022/09/07 08:35:07;;;;;;;4.03;3.60;;;23.70;99.90;;;;;;5039394;28;20508;-82
2022/09/07 08:37:34;;;;;;;4.17;3.77;;;23.80;99.90;;;;;;5039447;28;20548;-81
2022/09/07 08:40:01;;;;;;;4.00;3.20;;;23.80;99.90;;;;;;5039738;28;20457;-82
2022/09/07 08:42:44;;;;;;;5.13;3.80;;;23.90;99.90;;;;;;5039149;28;20464;-82
2022/09/07 08:45:21;;;;;;;7.07;4.40;;;24.00;99.90;;;;;;5039056;28;20935;-82
2022/09/07 08:47:50;;;;;;;4.57;3.50;;;24.10;99.90;;;;;;5039163;28;20947;-82
2022/09/07 08:50:20;;;;;;;3.67;3.30;;;24.20;99.90;;;;;;5039427;28;20827;-82
2022/09/07 08:52:50;;;;;;;5.37;3.60;;;24.30;99.90;;;;;;5038457;28;20450;-82
2022/09/07 08:55:21;;;;;;;4.50;3.13;;;24.30;99.90;;;;;;5038769;28;20991;-82
2022/09/07 08:57:55;;;;;;;8.70;3.67;;;24.40;99.90;;;;;;5039319;28;20472;-82
2022/09/07 09:00:23;;;;;;;4.63;3.23;;;24.50;99.90;;;;;;5038929;28;20460;-82
2022/09/07 09:02:50;;;;;;;3.47;2.70;;;24.50;99.90;;;;;;5038962;28;20460;-82
2022/09/07 09:05:31;;;;;;;6.03;3.77;;;24.60;99.90;;;;;;5038509;28;20859;-82
2022/09/07 09:08:13;;;;;;;4.20;3.70;;;24.60;99.90;;;;;;5038994;28;20450;-83
2022/09/07 09:10:52;;;;;;;3.80;3.50;;;24.70;99.90;;;;;;5039610;28;20457;-82
2022/09/07 09:13:26;;;;;;;4.70;3.80;;;24.80;99.90;;;;;;5038446;28;20482;-83
2022/09/07 09:16:01;;;;;;;5.50;2.90;;;24.90;99.90;;;;;;5038230;28;20481;-82
2022/09/07 09:18:36;;;;;;;3.60;2.50;;;24.90;99.90;;;;;;5038510;28;20453;-83
2022/09/07 09:21:06;;;;;;;4.63;2.80;;;24.90;99.90;;;;;;5039066;28;20465;-82
2022/09/07 09:23:41;;;;;;;6.93;3.90;;;25.00;99.90;;;;;;5043379;28;20466;-82
2022/09/07 09:26:13;;;;;;;4.47;2.73;;;25.10;99.90;;;;;;5039602;28;20991;-82
2022/09/07 09:28:40;;;;;;;7.93;3.00;;;25.20;99.90;;;;;;5039019;28;20458;-83
2022/09/07 09:31:16;;;;;;;3.90;3.00;;;25.40;99.90;;;;;;5039400;28;20450;-82
2022/09/07 09:33:43;;;;;;;6.87;4.00;;;25.50;99.70;;;;;;5038181;28;20493;-83
2022/09/07 09:36:30;;;;;;;2.57;2.40;;;25.70;99.40;;;;;;5038781;28;20529;-83
2022/09/07 09:38:58;;;;;;;3.47;3.17;;;25.80;97.40;;;;;;5043013;28;20446;-83
2022/09/07 09:41:24;;;;;;;3.33;3.03;;;25.90;97.30;;;;;;5042954;28;20452;-83
2022/09/07 09:43:54;;;;;;;5.10;3.27;;;25.90;97.50;;;;;;5042457;28;20453;-83
2022/09/07 09:46:26;;;;;;;2.70;2.43;;;26.10;97.20;;;;;;5043454;28;20483;-82
2022/09/07 09:48:56;;;;;;;2.60;2.40;;;26.30;97.00;;;;;;5043252;28;20460;-82
2022/09/07 09:51:26;;;;;;;3.73;3.20;;;26.40;96.80;;;;;;5043108;28;20551;-81
2022/09/07 09:53:56;;;;;;;4.93;3.20;;;26.50;96.60;;;;;;5042455;28;20486;-81
2022/09/07 09:56:36;;;;;;;4.43;3.13;;;26.60;96.30;;;;;;5044563;28;20478;-82
2022/09/07 09:59:12;;;;;;;3.83;3.53;;;26.60;95.80;;;;;;5043329;28;20453;-82
2022/09/07 10:01:40;;;;;;;3.40;3.10;;;26.60;95.30;;;;;;5042506;28;20448;-82
2022/09/07 10:04:29;;;;;;;3.70;3.40;;;26.60;95.40;;;;;;5041807;28;20449;-82
2022/09/07 10:06:57;;;;;;;7.27;3.03;;;26.60;95.30;;;;;;5042059;28;20965;-82
2022/09/07 10:09:30;;;;;;;5.33;2.93;;;26.60;95.10;;;;;;5041636;28;20950;-82
2022/09/07 10:11:59;;;;;;;5.07;3.27;;;26.70;95.30;;;;;;5042531;28;20453;-81
2022/09/07 10:14:29;;;;;;;4.00;3.20;;;26.80;94.70;;;;;;5042881;28;20490;-82
2022/09/07 10:16:58;;;;;;;2.67;2.47;;;26.90;94.40;;;;;;5042702;28;20954;-82
2022/09/07 10:19:32;;;;;;;5.43;3.03;;;27.20;94.70;;;;;;5052174;28;20477;-81
2022/09/07 10:22:01;;;;;;;5.03;2.50;;;27.40;93.10;;;;;;5043098;28;20464;-82
2022/09/07 10:24:33;;;;;;;4.67;2.63;;;27.60;93.10;;;;;;5042665;28;20450;-82
2022/09/07 10:27:00;;;;;;;5.40;2.67;;;27.70;92.60;;;;;;5041463;28;20450;-82
2022/09/07 10:29:29;;;;;;;4.27;2.33;;;27.80;92.90;;;;;;5041870;28;20457;-82
2022/09/07 10:32:11;;;;;;;3.13;2.80;;;27.90;92.60;;;;;;5041745;28;20463;-82
2022/09/07 10:34:48;;;;;;;5.13;3.50;;;27.90;91.90;;;;;;5046743;28;20492;-81
2022/09/07 10:37:25;;;;;;;4.53;3.10;;;28.20;92.30;;;;;;5044223;28;20457;-82
2022/09/07 10:40:04;;;;;;;3.43;3.00;;;28.40;92.10;;;;;;5041883;28;20448;-81
2022/09/07 10:42:33;;;;;;;5.37;3.33;;;28.50;91.60;;;;;;5045469;28;20450;-82
2022/09/07 10:45:10;;;;;;;2.83;2.60;;;28.70;90.70;;;;;;5045685;28;20479;-83
2022/09/07 10:47:50;;;;;;;4.30;2.97;;;29.00;90.50;;;;;;5044473;28;20468;-82
2022/09/07 10:50:27;;;;;;;3.40;3.10;;;29.40;91.70;;;;;;5041154;28;20468;-82
2022/09/07 10:53:14;;;;;;;2.70;2.50;;;29.90;90.30;;;;;;5041576;28;20459;-83
2022/09/07 10:55:43;;;;;;;4.33;2.67;;;30.30;89.30;;;;;;5038971;28;20476;-83
2022/09/07 10:58:21;;;;;;;2.83;2.60;;;30.40;85.30;;;;;;5041109;28;20452;-82
2022/09/07 11:01:05;;;;;;;3.53;3.00;;;30.40;83.00;;;;;;5041746;28;20860;-82
2022/09/07 11:03:53;;;;;;;2.80;2.53;;;30.70;81.30;;;;;;5041083;28;20782;-82
2022/09/07 11:06:25;;;;;;;3.23;2.93;;;30.70;78.70;;;;;;5041203;28;20472;-82
2022/09/07 11:09:25;;;;;;;2.73;2.53;;;31.00;77.80;;;;;;5040089;28;20449;-82
2022/09/07 11:11:59;;;;;;;4.40;2.47;;;31.30;77.00;;;;;;5041384;28;20727;-82
2022/09/07 11:14:28;;;;;;;3.57;3.27;;;31.60;74.10;;;;;;5047552;28;20504;-81
2022/09/07 11:17:01;;;;;;;3.90;3.53;;;31.70;77.50;;;;;;5045722;28;20457;-82
2022/09/07 11:19:33;;;;;;;3.93;3.63;;;31.20;77.70;;;;;;5040935;28;20463;-82
2022/09/07 11:22:14;;;;;;;3.17;2.87;;;30.80;79.50;;;;;;5040779;28;20456;-82
2022/09/07 11:24:47;;;;;;;4.37;3.27;;;30.50;80.80;;;;;;5040489;28;20467;-82
2022/09/07 11:27:20;;;;;;;5.60;3.60;;;30.00;82.00;;;;;;5040491;28;20448;-82
2022/09/07 11:29:52;;;;;;;4.40;4.00;;;29.60;83.70;;;;;;5044209;28;20447;-83
2022/09/07 11:32:22;;;;;;;5.20;3.53;;;29.30;86.10;;;;;;5040971;28;20536;-82
2022/09/07 11:34:55;;;;;;;3.40;3.10;;;28.70;85.50;;;;;;5040678;28;20495;-82
2022/09/07 11:37:28;;;;;;;3.60;3.10;;;28.70;87.80;;;;;;5039671;28;20476;-82
2022/09/07 11:40:00;;;;;;;3.93;2.93;;;29.10;85.70;;;;;;5039914;28;20947;-83
2022/09/07 11:42:33;;;;;;;3.13;2.87;;;29.80;84.60;;;;;;5039956;28;20463;-82
2022/09/07 11:45:06;;;;;;;4.23;2.77;;;30.50;83.60;;;;;;5040721;28;20471;-82
2022/09/07 11:47:39;;;;;;;3.63;2.50;;;31.30;79.60;;;;;;5039945;28;20458;-82
2022/09/07 11:50:15;;;;;;;3.60;2.70;;;31.90;78.30;;;;;;5040027;28;20458;-82
2022/09/07 11:52:47;;;;;;;3.30;2.70;;;32.70;75.30;;;;;;5039489;28;20466;-82
2022/09/07 11:55:20;;;;;;;3.67;2.67;;;33.50;71.90;;;;;;5039253;28;20499;-82
2022/09/07 11:58:01;;;;;;;3.03;2.37;;;34.10;68.00;;;;;;5039452;28;20484;-82
2022/09/07 12:00:37;;;;;;;4.10;2.47;;;34.60;66.70;;;;;;5038939;28;20457;-83
2022/09/07 12:03:31;;;;;;;4.80;3.20;;;35.20;61.60;;;;;;5039620;28;20453;-82
2022/09/07 12:06:18;;;;;;;3.20;2.40;;;35.80;59.30;;;;;;5039683;28;20489;-82
2022/09/07 12:09:00;;;;;;;6.30;2.60;;;36.20;57.60;;;;;;5038971;28;20465;-82
2022/09/07 12:11:42;;;;;;;2.57;2.40;;;36.20;56.20;;;;;;5050984;28;20472;-82
2022/09/07 12:14:21;;;;;;;2.13;2.03;;;36.20;54.10;;;;;;5040068;28;20485;-82
2022/09/07 12:17:13;;;;;;;2.60;2.40;;;35.50;53.30;;;;;;5039631;28;20829;-82
2022/09/07 12:19:40;;;;;;;2.40;2.20;;;35.30;54.30;;;;;;5039334;28;20464;-82
2022/09/07 12:22:20;;;;;;;6.17;2.90;;;35.00;55.10;;;;;;5040061;28;20457;-82
2022/09/07 12:24:50;;;;;;;4.77;3.37;;;34.10;56.40;;;;;;5039100;28;20472;-82
2022/09/07 12:27:36;;;;;;;4.30;2.70;;;33.40;58.00;;;;;;5039164;28;20486;-82
2022/09/07 12:33:43;;;;;;;6.57;3.40;;;32.60;59.30;;;;;;5095794;27;20516;-81
2022/09/07 12:36:42;;;;;;;3.00;2.47;;;32.30;59.10;;;;;;5096163;28;20525;-81
2022/09/07 12:39:27;;;;;;;2.80;2.63;;;32.30;58.40;;;;;;5095479;28;20445;-81
2022/09/07 12:42:21;;;;;;;3.00;2.70;;;32.00;58.40;;;;;;5096358;28;20444;-81
2022/09/07 12:44:48;;;;;;;3.30;2.37;;;31.80;59.90;;;;;;5097174;28;20521;-81
2022/09/07 12:47:28;;;;;;;3.97;2.60;;;32.10;61.60;;;;;;5097260;28;20536;-81
2022/09/07 12:50:09;;;;;;;5.73;2.90;;;32.80;59.60;;;;;;5096049;28;20449;-81
2022/09/07 12:52:49;;;;;;;3.23;2.93;;;33.20;58.60;;;;;;5095704;28;20486;-81
2022/09/07 12:55:33;;;;;;;4.07;2.77;;;33.20;58.10;;;;;;5096033;28;20494;-83
2022/09/07 12:58:15;;;;;;;2.70;2.50;;;33.00;58.40;;;;;;5096215;28;20449;-81
2022/09/07 13:01:00;;;;;;;4.00;2.80;;;33.00;57.60;;;;;;5097019;28;20446;-81
2022/09/07 13:03:54;;;;;;;2.60;2.50;;;33.00;57.60;;;;;;5096665;28;20444;-82
2022/09/07 13:06:31;;;;;;;2.43;2.23;;;32.60;57.90;;;;;;5106798;28;20448;-82
2022/09/07 13:09:27;;;;;;;2.50;2.33;;;33.20;57.80;;;;;;5096671;28;20446;-81
2022/09/07 13:11:54;;;;;;;5.43;2.90;;;33.10;56.60;;;;;;5095880;28;20482;-82
2022/09/07 13:14:26;;;;;;;2.70;2.50;;;32.70;57.50;;;;;;5095803;28;20883;-82
2022/09/07 13:17:28;;;;;;;2.43;2.20;;;32.40;58.10;;;;;;5095786;28;20451;-82
2022/09/07 13:20:31;;;;;;;2.67;2.47;;;32.20;57.60;;;;;;5096146;28;20826;-82
2022/09/07 13:23:20;;;;;;;3.40;2.40;;;32.40;57.50;;;;;;5080026;28;20448;-82
2022/09/07 13:25:55;;;;;;;2.43;2.33;;;33.20;56.60;;;;;;5095740;28;20466;-82
2022/09/07 13:28:47;;;;;;;2.80;2.33;;;33.90;56.50;;;;;;5096008;28;20442;-82
2022/09/07 13:31:43;;;;;;;3.70;2.20;;;34.70;56.30;;;;;;5095902;28;20451;-82
2022/09/07 13:34:30;;;;;;;4.87;2.57;;;35.60;54.70;;;;;;5095281;28;20449;-82
2022/09/07 13:36:58;;;;;;;2.30;1.93;;;36.10;52.20;;;;;;5096532;28;20450;-82
2022/09/07 13:39:25;;;;;;;2.13;2.03;;;36.40;52.20;;;;;;5094826;28;20447;-82
2022/09/07 13:41:55;;;;;;;3.43;2.53;;;37.10;51.00;;;;;;5095640;28;20447;-82
2022/09/07 13:44:24;;;;;;;2.33;2.23;;;37.70;48.90;;;;;;5085240;28;20448;-82
2022/09/07 13:47:02;;;;;;;4.07;1.87;;;37.90;47.30;;;;;;5082055;28;20454;-82
2022/09/07 13:49:46;;;;;;;3.50;3.23;;;37.00;47.70;;;;;;5081749;28;20462;-82
2022/09/07 13:52:17;;;;;;;4.83;4.00;;;36.40;47.90;;;;;;5081525;28;20486;-82
2022/09/07 13:55:02;;;;;;;5.30;2.53;;;35.90;49.00;;;;;;5081182;28;20470;-82
2022/09/07 13:57:37;;;;;;;2.37;2.20;;;35.00;48.00;;;;;;5081640;28;20454;-82
2022/09/07 14:00:05;;;;;;;2.37;2.27;;;34.30;49.80;;;;;;5082828;28;20447;-81
2022/09/07 14:02:35;;;;;;;4.10;2.40;;;34.00;51.20;;;;;;5090429;28;20455;-82
2022/09/07 14:05:03;;;;;;;2.60;2.40;;;33.60;51.00;;;;;;5081014;28;20478;-82
2022/09/07 14:07:31;;;;;;;2.50;2.27;;;33.50;52.10;;;;;;5081193;28;20478;-82
2022/09/07 14:10:06;;;;;;;4.90;3.43;;;33.30;51.80;;;;;;5081128;28;20556;-82
2022/09/07 14:12:41;;;;;;;2.70;2.17;;;33.10;52.20;;;;;;5080668;28;20488;-82
2022/09/07 14:15:14;;;;;;;3.07;2.87;;;32.90;52.60;;;;;;5081652;28;20534;-82
2022/09/07 14:17:43;;;;;;;2.50;2.30;;;32.90;54.00;;;;;;5081355;28;20454;-82
2022/09/07 14:20:13;;;;;;;2.00;1.70;;;32.60;52.40;;;;;;5080959;28;20561;-81
2022/09/07 14:22:40;;;;;;;3.07;2.30;;;32.20;53.60;;;;;;5081197;28;20445;-82
2022/09/07 14:25:08;;;;;;;3.87;2.70;;;32.00;53.60;;;;;;5081035;28;20474;-81
2022/09/07 14:27:37;;;;;;;2.40;2.30;;;31.60;54.20;;;;;;5080725;28;20830;-82
2022/09/07 14:30:23;;;;;;;2.73;2.53;;;31.20;54.80;;;;;;5080154;28;20452;-80
2022/09/07 14:32:53;;;;;;;2.43;2.23;;;30.70;55.50;;;;;;5079344;28;20486;-81
2022/09/07 14:35:22;;;;;;;5.77;2.70;;;30.40;56.30;;;;;;5077911;28;20474;-81
2022/09/07 14:37:50;;;;;;;5.40;2.40;;;30.20;57.40;;;;;;5078750;28;20938;-82
2022/09/07 14:40:20;;;;;;;2.30;2.20;;;30.00;57.90;;;;;;5081512;28;20455;-82
2022/09/07 14:42:48;;;;;;;4.47;2.37;;;30.00;59.50;;;;;;5081605;28;20452;-82
2022/09/07 14:45:29;;;;;;;2.63;2.23;;;29.40;58.50;;;;;;5081410;28;20550;-82
2022/09/07 14:47:58;;;;;;;3.40;2.60;;;29.40;58.70;;;;;;5081520;28;20454;-83
2022/09/07 14:50:27;;;;;;;3.77;2.80;;;29.30;59.00;;;;;;5080542;28;20454;-83
2022/09/07 14:52:55;;;;;;;5.40;4.57;;;29.20;59.30;;;;;;5080594;28;20475;-82
2022/09/07 14:55:31;;;;;;;4.10;3.17;;;29.00;59.80;;;;;;5084567;28;20454;-81
2022/09/07 14:58:24;;;;;;;2.57;2.30;;;29.10;60.60;;;;;;5085466;28;20485;-82
2022/09/07 15:00:53;;;;;;;4.97;3.27;;;29.50;60.50;;;;;;5044994;28;20517;-81
2022/09/07 15:03:29;;;;;;;2.20;2.00;;;30.10;59.50;;;;;;5080088;28;20447;-81
2022/09/07 15:05:58;;;;;;;2.80;2.60;;;30.30;59.20;;;;;;5079893;28;20472;-82
2022/09/07 15:08:39;;;;;;;3.23;3.00;;;30.30;59.40;;;;;;5080043;28;20454;-82
2022/09/07 15:11:07;;;;;;;2.90;2.57;;;30.30;59.30;;;;;;5080441;28;20447;-81
2022/09/07 15:13:36;;;;;;;2.53;2.40;;;30.20;59.20;;;;;;5080021;28;20483;-81
2022/09/07 15:16:05;;;;;;;3.10;2.40;;;30.10;59.60;;;;;;5080429;28;20468;-81
2022/09/07 15:18:54;;;;;;;2.63;2.53;;;30.10;59.50;;;;;;5080165;28;20475;-81
2022/09/07 15:21:22;;;;;;;3.67;3.27;;;30.00;59.70;;;;;;5080420;28;20950;-81
2022/09/07 15:23:50;;;;;;;3.67;2.63;;;29.90;59.60;;;;;;5080012;28;20450;-81
2022/09/07 15:26:18;;;;;;;2.73;2.53;;;29.80;61.00;;;;;;5079825;28;20990;-81
2022/09/07 15:28:44;;;;;;;4.40;2.37;;;29.50;60.80;;;;;;5079539;28;20475;-81
2022/09/07 15:31:12;;;;;;;2.93;2.60;;;29.40;61.40;;;;;;5080053;28;20451;-81
2022/09/07 15:33:39;;;;;;;2.57;2.10;;;29.10;61.20;;;;;;5074028;28;20494;-81
2022/09/07 15:36:10;;;;;;;2.93;2.30;;;28.90;62.20;;;;;;5072270;28;20474;-81
2022/09/07 15:38:37;;;;;;;3.73;2.80;;;28.60;62.50;;;;;;5059384;28;20471;-82
2022/09/07 15:41:04;;;;;;;9.87;5.07;;;28.30;63.00;;;;;;5063932;28;20458;-85
2022/09/07 15:43:30;;;;;;;3.70;2.20;;;28.20;63.90;;;;;;5078259;28;20465;-82
2022/09/07 15:45:57;;;;;;;3.00;2.80;;;28.00;64.60;;;;;;5080456;28;20872;-81
2022/09/07 15:48:24;;;;;;;4.83;2.80;;;28.10;65.00;;;;;;5080138;28;20460;-81
2022/09/07 15:50:52;;;;;;;3.30;3.10;;;28.00;65.70;;;;;;5067377;28;20447;-80
2022/09/07 15:53:20;;;;;;;3.87;3.40;;;27.80;65.50;;;;;;5072803;28;20471;-81
2022/09/07 15:55:53;;;;;;;2.50;2.30;;;27.90;66.20;;;;;;5079584;28;20474;-82
2022/09/07 15:58:20;;;;;;;2.80;2.60;;;27.90;66.50;;;;;;5069397;28;20517;-82
2022/09/07 16:00:47;;;;;;;3.03;2.83;;;27.90;66.80;;;;;;5065308;28;20473;-82
2022/09/07 16:03:14;;;;;;;2.43;2.23;;;27.90;67.20;;;;;;5079342;28;20446;-83
2022/09/07 16:05:42;;;;;;;4.40;3.67;;;27.80;68.40;;;;;;5073535;28;20474;-82
2022/09/07 16:08:10;;;;;;;3.13;2.50;;;27.80;68.70;;;;;;5060334;28;20454;-83
2022/09/07 16:10:38;;;;;;;4.10;2.50;;;27.80;68.70;;;;;;5063159;28;20956;-78
2022/09/07 16:13:05;;;;;;;4.17;2.40;;;27.90;68.90;;;;;;5055787;28;20479;-82
2022/09/07 16:15:32;;;;;;;3.10;2.83;;;27.90;68.90;;;;;;5054135;28;20471;-83
2022/09/07 16:17:59;;;;;;;2.90;2.70;;;27.90;68.90;;;;;;5054166;28;20451;-80
2022/09/07 16:20:26;;;;;;;2.90;2.70;;;27.90;68.10;;;;;;5056640;28;20449;-81
2022/09/07 16:22:53;;;;;;;2.70;1.93;;;27.90;68.00;;;;;;5074371;28;20782;-82
2022/09/07 16:25:20;;;;;;;2.83;2.63;;;28.00;68.00;;;;;;5074268;28;20478;-82
2022/09/07 16:27:48;;;;;;;4.10;2.20;;;27.80;66.90;;;;;;5076729;28;20457;-84
2022/09/07 16:30:15;;;;;;;2.40;2.30;;;27.80;67.80;;;;;;5078364;28;20461;-83
2022/09/07 16:32:42;;;;;;;2.50;2.30;;;27.50;66.70;;;;;;5079215;28;20464;-83
2022/09/07 16:35:09;;;;;;;2.23;2.03;;;27.20;67.60;;;;;;5078217;28;20477;-83
2022/09/07 16:37:35;;;;;;;3.30;3.00;;;27.00;67.80;;;;;;5074723;28;20457;-85
2022/09/07 16:40:03;;;;;;;3.93;2.60;;;26.80;68.70;;;;;;5071904;28;20460;-83
2022/09/07 16:42:29;;;;;;;2.87;2.53;;;26.70;70.10;;;;;;5075222;28;20594;-83
2022/09/07 16:44:58;;;;;;;2.90;2.30;;;26.60;71.80;;;;;;5079582;28;20468;-83
2022/09/07 16:47:25;;;;;;;3.70;2.40;;;26.40;72.90;;;;;;5090139;28;20455;-83
2022/09/07 16:49:51;;;;;;;5.33;3.03;;;26.30;74.00;;;;;;5079697;28;20452;-83
2022/09/07 16:52:18;;;;;;;4.40;3.37;;;26.10;74.90;;;;;;5079155;28;20553;-83
2022/09/07 16:54:45;;;;;;;2.07;1.97;;;26.00;75.50;;;;;;5079136;28;20559;-83
2022/09/07 16:57:13;;;;;;;4.60;3.30;;;25.70;76.50;;;;;;5079751;28;20443;-82
2022/09/07 16:59:39;;;;;;;6.03;2.93;;;25.60;77.60;;;;;;5079204;28;20963;-83
2022/09/07 17:02:14;;;;;;;3.60;3.20;;;25.40;78.20;;;;;;5079392;28;20453;-83
2022/09/07 18:06:25;;;;;;;3.30;3.00;;;23.50;94.50;;;;;;4749922;30;20469;-82
2022/09/07 18:08:52;;;;;;;4.33;4.03;;;23.10;95.10;;;;;;4889009;29;20906;-82
2022/09/07 18:11:22;;;;;;;4.43;4.13;;;22.90;96.30;;;;;;4986767;28;20497;-82
2022/09/07 18:13:56;;;;;;;27.17;24.83;;;22.80;96.60;;;;;;5001596;28;20493;-82
2022/09/07 18:16:34;;;;;;;12.83;11.57;;;22.70;97.20;;;;;;5002238;28;20454;-82
2022/09/07 18:19:06;;;;;;;115.63;104.40;;;22.60;97.90;;;;;;5001808;28;20455;-82
2022/09/07 18:21:34;;;;;;;10.23;9.27;;;22.60;99.70;;;;;;5002141;28;20439;-83
2022/09/07 18:24:03;;;;;;;52.70;45.97;;;22.50;99.90;;;;;;4998934;28;20463;-84
2022/09/07 18:26:32;;;;;;;10.20;7.37;;;22.20;99.90;;;;;;4998563;28;20479;-84
2022/09/07 18:29:00;;;;;;;24.13;21.63;;;22.00;99.90;;;;;;4998448;28;21018;-84
2022/09/07 18:31:27;;;;;;;43.93;39.43;;;21.70;99.90;;;;;;4998710;28;20461;-83
2022/09/07 18:33:54;;;;;;;10.57;9.67;;;21.40;99.90;;;;;;4998718;28;20493;-83
2022/09/07 18:36:22;;;;;;;9.27;8.30;;;21.30;99.90;;;;;;5000125;28;20553;-83
2022/09/07 18:38:49;;;;;;;25.03;19.97;;;21.10;99.90;;;;;;5009349;28;20461;-82
2022/09/07 18:41:16;;;;;;;114.10;101.77;;;21.10;99.90;;;;;;4997266;28;20451;-82
2022/09/07 18:43:45;;;;;;;26.43;23.73;;;21.10;99.90;;;;;;4997425;28;20462;-83
2022/09/07 18:46:14;;;;;;;16.30;12.83;;;21.10;99.90;;;;;;4996890;28;20847;-83
2022/09/07 18:48:41;;;;;;;5.50;4.97;;;21.00;99.90;;;;;;4996777;28;20454;-84
2022/09/07 18:51:08;;;;;;;3.30;2.90;;;21.00;99.90;;;;;;4997144;28;20463;-83
2022/09/07 18:53:36;;;;;;;4.03;3.37;;;20.80;99.90;;;;;;4997271;28;20491;-83
2022/09/07 18:56:03;;;;;;;5.17;4.10;;;20.70;99.90;;;;;;4996659;28;21001;-82
2022/09/07 18:58:31;;;;;;;118.67;105.77;;;20.70;99.90;;;;;;4997630;28;20467;-83
2022/09/07 19:01:03;;;;;;;9.57;8.73;;;20.60;99.90;;;;;;4998696;28;20458;-82
2022/09/07 19:03:30;;;;;;;3.80;3.50;;;20.60;99.90;;;;;;4997916;28;20440;-84
2022/09/07 19:05:58;;;;;;;3.57;3.30;;;20.60;99.90;;;;;;4996980;28;20467;-84
2022/09/07 19:08:25;;;;;;;3.23;3.03;;;20.60;99.90;;;;;;4996885;28;20464;-82
2022/09/07 19:10:52;;;;;;;4.37;2.77;;;20.50;99.90;;;;;;4997074;28;20456;-83
2022/09/07 19:13:19;;;;;;;2.83;2.73;;;20.50;99.90;;;;;;4996743;28;20956;-83
2022/09/07 19:15:46;;;;;;;2.60;2.47;;;20.50;99.90;;;;;;4996919;28;20471;-83
2022/09/07 19:18:14;;;;;;;5.10;3.17;;;20.60;99.90;;;;;;4996324;28;20474;-84
2022/09/07 19:20:41;;;;;;;3.10;2.80;;;20.50;99.90;;;;;;4996335;28;20453;-83
2022/09/07 19:23:07;;;;;;;2.53;2.33;;;20.40;99.90;;;;;;4996613;28;20456;-83
2022/09/07 19:25:38;;;;;;;4.60;2.60;;;20.40;99.90;;;;;;4996259;28;20474;-83
2022/09/07 19:28:05;;;;;;;11.10;10.10;;;20.50;99.90;;;;;;4996262;28;20464;-83
2022/09/07 19:30:34;;;;;;;3.20;3.00;;;20.50;99.90;;;;;;4996399;28;20444;-83
2022/09/07 19:33:01;;;;;;;4.10;3.80;;;20.50;99.90;;;;;;5004991;28;20462;-84
2022/09/07 19:35:30;;;;;;;2.00;1.90;;;20.50;99.90;;;;;;5001506;28;20832;-83
2022/09/07 19:37:56;;;;;;;2.60;2.50;;;20.60;99.90;;;;;;4996094;28;20456;-83
2022/09/07 19:40:23;;;;;;;2.80;2.60;;;20.70;99.90;;;;;;4995765;28;21106;-84
2022/09/07 19:42:50;;;;;;;2.40;2.23;;;20.80;99.90;;;;;;4995939;28;20456;-83
2022/09/07 19:45:17;;;;;;;2.53;1.97;;;20.80;99.90;;;;;;4996359;28;20477;-83
2022/09/07 19:47:44;;;;;;;3.80;2.97;;;20.80;99.90;;;;;;4995778;28;20465;-84
2022/09/07 19:50:11;;;;;;;2.57;2.37;;;20.80;99.90;;;;;;4995748;28;20452;-83
2022/09/07 19:52:39;;;;;;;2.10;2.00;;;20.90;99.90;;;;;;4995739;28;20947;-83
2022/09/07 19:55:07;;;;;;;2.67;2.50;;;20.80;99.90;;;;;;4995695;28;20492;-84
2022/09/07 19:57:33;;;;;;;3.43;3.10;;;20.80;99.90;;;;;;4995842;28;20455;-84
2022/09/07 20:00:00;;;;;;;2.37;2.27;;;20.80;99.90;;;;;;4995609;28;20452;-83
2022/09/07 20:02:27;;;;;;;2.83;2.63;;;20.80;99.90;;;;;;4996093;28;20459;-83
2022/09/07 20:04:54;;;;;;;3.17;2.87;;;20.90;99.90;;;;;;4995817;28;20996;-83
2022/09/07 20:07:21;;;;;;;4.60;2.97;;;20.90;99.90;;;;;;4996225;28;20833;-83
2022/09/07 20:09:50;;;;;;;3.27;2.97;;;20.90;99.90;;;;;;4995381;28;20456;-83
2022/09/07 20:12:18;;;;;;;3.60;2.60;;;20.80;99.90;;;;;;4995658;28;20491;-83
2022/09/07 20:14:45;;;;;;;3.63;3.33;;;20.80;99.90;;;;;;4995327;28;20518;-84
2022/09/07 20:17:12;;;;;;;2.90;2.70;;;20.80;99.90;;;;;;4995892;28;20451;-83